ETSH

Holzdorf Airport

Germany
METAR ETSH 180220Z 15003KT 9999 BKN035 M00/M01 Q1023 BLU
Observed Flight Rules
Dec-18 @ 02:20 UTC (43 minutes ago) Visual Flight Rules
Wind Visibility Clouds
150° at 3 knots 10,000+ meters
  • Broken at 3,500' AGL
Temperatures Readings
Current 0°C / 32°F
Dewpoint -1°C / 30°F
Humidity 93%
Altimeter 30.21" Hg
Pressure 1023 hPa
Elevation 79
METAR ETSH 180220Z 15003KT 9999 BKN035 M00/M01 Q1023 BLU
Observed Flight Rules
Dec-18 @ 02:20 UTC
(43 minutes ago)
VFR
Wind Visibility
150° at 3 knots 10,000+ meters
Clouds
  • Broken at 3,500' AGL
Temperature Dewpoint
0°C / 32°F -1°C / 30°F
Humidity Altimeter Pressure
93% 30.21" Hg 1023 hPa